createdAt,value
2018-09-06T00:01:23.835Z,8.73
2018-09-06T00:03:51.534Z,8.43
2018-09-06T00:06:19.208Z,10.48
2018-09-06T00:08:46.857Z,8.43
2018-09-06T00:11:14.537Z,11.93
2018-09-06T00:13:42.199Z,9.08
2018-09-06T00:16:09.773Z,11.55
2018-09-06T00:18:37.334Z,13.20
2018-09-06T00:21:04.998Z,14.28
2018-09-06T00:23:32.758Z,14.65
2018-09-06T00:26:00.430Z,18.48
2018-09-06T00:28:28.034Z,19.67
2018-09-06T00:30:55.694Z,19.05
2018-09-06T00:33:23.365Z,22.58
2018-09-06T00:35:51.023Z,21.80
2018-09-06T00:38:18.682Z,22.25
2018-09-06T00:40:46.280Z,24.77
2018-09-06T00:43:13.916Z,23.92
2018-09-06T00:45:41.643Z,23.10
2018-09-06T00:48:09.268Z,24.10
2018-09-06T00:50:38.062Z,28.17
2018-09-06T00:53:06.023Z,25.48
2018-09-06T00:55:33.995Z,25.88
2018-09-06T00:58:01.664Z,24.15
2018-09-06T01:00:29.316Z,26.27
2018-09-06T01:02:56.998Z,24.32
2018-09-06T01:05:24.700Z,23.55
2018-09-06T01:07:52.332Z,26.60
2018-09-06T01:10:19.984Z,26.75
2018-09-06T01:12:47.677Z,27.58
2018-09-06T01:15:15.438Z,25.20
2018-09-06T01:17:43.169Z,23.87
2018-09-06T01:20:10.860Z,24.37
2018-09-06T01:22:38.515Z,23.90
2018-09-06T01:25:06.288Z,24.02
2018-09-06T01:27:34.006Z,21.75
2018-09-06T01:30:01.675Z,23.38
2018-09-06T01:32:29.352Z,23.12
2018-09-06T01:34:57.051Z,20.75
2018-09-06T01:37:24.728Z,24.67
2018-09-06T01:39:52.347Z,24.15
2018-09-06T01:42:19.991Z,22.67
2018-09-06T01:44:47.619Z,23.87
2018-09-06T01:47:15.352Z,20.92
2018-09-06T01:49:42.996Z,23.20
2018-09-06T01:52:10.636Z,23.92
2018-09-06T01:54:38.276Z,22.77
2018-09-06T01:57:05.958Z,22.40
2018-09-06T01:59:36.031Z,24.63
2018-09-06T02:02:03.691Z,25.00
2018-09-06T02:04:31.202Z,24.12
2018-09-06T02:06:58.901Z,22.67
2018-09-06T02:09:26.515Z,25.25
2018-09-06T02:11:54.160Z,23.80
2018-09-06T02:14:21.773Z,26.42
2018-09-06T02:16:49.451Z,27.48
2018-09-06T02:19:17.133Z,26.33
2018-09-06T02:21:44.836Z,24.20
2018-09-06T02:24:12.488Z,23.52
2018-09-06T02:26:40.160Z,25.97
2018-09-06T02:29:07.864Z,26.17
2018-09-06T02:31:35.614Z,29.35
2018-09-06T02:34:03.310Z,28.83
2018-09-06T02:36:30.836Z,30.68
2018-09-06T02:38:58.462Z,31.27
2018-09-06T02:41:26.082Z,26.33
2018-09-06T02:43:53.799Z,33.40
2018-09-06T02:46:21.465Z,33.23
2018-09-06T02:48:49.149Z,33.28
2018-09-06T02:51:18.008Z,36.68
2018-09-06T02:53:45.586Z,39.45
2018-09-06T02:56:13.889Z,40.17
2018-09-06T02:58:41.463Z,44.80
2018-09-06T03:01:09.314Z,43.87
2018-09-06T03:03:36.883Z,45.67
2018-09-06T03:06:04.660Z,41.02
2018-09-06T03:08:32.277Z,47.30
2018-09-06T03:11:04.556Z,43.45
2018-09-06T03:13:32.202Z,48.10
2018-09-06T03:15:59.890Z,49.10
2018-09-06T03:18:27.599Z,48.75
2018-09-06T03:20:55.203Z,51.13
2018-09-06T03:23:22.855Z,45.23
2018-09-06T03:25:50.532Z,50.48
2018-09-06T03:28:18.297Z,45.07
2018-09-06T03:30:45.905Z,47.10
2018-09-06T03:33:13.552Z,52.37
2018-09-06T03:35:41.169Z,47.35
2018-09-06T03:38:08.879Z,45.87
2018-09-06T03:40:36.548Z,48.47
2018-09-06T03:43:04.233Z,46.10
2018-09-06T03:45:31.854Z,48.77
2018-09-06T03:47:59.536Z,49.40
2018-09-06T03:50:27.201Z,46.70
2018-09-06T03:52:54.849Z,45.58
2018-09-06T03:55:22.475Z,46.43
2018-09-06T03:57:50.115Z,44.63
2018-09-06T04:00:17.680Z,47.23
2018-09-06T04:02:45.336Z,41.20
2018-09-06T04:05:12.976Z,43.43
2018-09-06T04:07:40.663Z,42.33
2018-09-06T04:10:08.348Z,43.37
2018-09-06T04:12:35.996Z,42.95
2018-09-06T04:15:03.594Z,44.20
2018-09-06T04:17:31.393Z,45.93
2018-09-06T04:19:59.080Z,46.57
2018-09-06T04:22:26.745Z,43.33
2018-09-06T04:24:54.358Z,37.73
2018-09-06T04:27:22.308Z,45.25
2018-09-06T04:29:49.942Z,45.23
2018-09-06T04:32:17.561Z,52.60
2018-09-06T04:34:45.295Z,43.20
2018-09-06T04:37:12.958Z,45.73
2018-09-06T04:39:40.600Z,46.67
2018-09-06T04:42:08.315Z,36.20
2018-09-06T04:44:36.033Z,41.53
2018-09-06T04:47:03.625Z,44.63
2018-09-06T04:49:31.285Z,44.23
2018-09-06T04:51:58.924Z,45.20
2018-09-06T04:54:27.450Z,43.47
2018-09-06T04:56:55.177Z,39.50
2018-09-06T04:59:23.024Z,45.17
2018-09-06T05:01:50.739Z,42.07
2018-09-06T05:04:18.388Z,42.70
2018-09-06T05:06:46.010Z,43.57
2018-09-06T05:09:13.615Z,40.13
2018-09-06T05:11:41.588Z,41.17
2018-09-06T05:14:09.361Z,41.80
2018-09-06T05:16:37.546Z,39.70
2018-09-06T05:19:05.313Z,40.57
2018-09-06T05:21:32.921Z,44.60
2018-09-06T05:24:00.435Z,45.33
2018-09-06T05:26:28.137Z,44.67
2018-09-06T05:28:55.788Z,47.13
2018-09-06T05:31:23.441Z,46.27
2018-09-06T05:33:51.123Z,48.77
2018-09-06T05:36:18.852Z,44.37
2018-09-06T05:38:46.520Z,46.20
2018-09-06T05:41:14.161Z,45.00
2018-09-06T05:43:41.841Z,50.00
2018-09-06T05:46:10.160Z,52.20
2018-09-06T05:48:38.013Z,44.60
2018-09-06T05:51:05.670Z,46.83
2018-09-06T05:53:33.348Z,43.70
2018-09-06T05:56:00.927Z,43.33
2018-09-06T05:58:28.670Z,42.27
2018-09-06T06:00:56.405Z,41.83
2018-09-06T06:03:24.116Z,39.97
2018-09-06T06:05:51.646Z,45.93
2018-09-06T06:08:24.912Z,35.37
2018-09-06T06:10:52.453Z,36.70
2018-09-06T06:13:20.147Z,39.70
2018-09-06T06:15:47.837Z,38.10
2018-09-06T06:18:15.509Z,42.67
2018-09-06T06:20:43.226Z,41.67
2018-09-06T06:23:10.935Z,43.07
2018-09-06T06:25:38.599Z,41.10
2018-09-06T06:28:06.292Z,46.20
2018-09-06T06:30:34.031Z,42.37
2018-09-06T06:33:01.651Z,39.50
2018-09-06T06:35:29.471Z,42.23
2018-09-06T06:37:57.155Z,36.60
2018-09-06T06:40:24.832Z,37.30
2018-09-06T06:42:52.661Z,39.60
2018-09-06T06:45:20.322Z,40.30
2018-09-06T06:47:47.970Z,44.77
2018-09-06T06:50:15.791Z,39.90
2018-09-06T06:52:43.381Z,40.57
2018-09-06T06:55:11.092Z,40.90
2018-09-06T06:57:38.715Z,43.63
2018-09-06T07:00:06.440Z,38.17
2018-09-06T07:02:34.108Z,35.63
2018-09-06T07:05:01.749Z,38.33
2018-09-06T07:07:29.490Z,31.27
2018-09-06T07:09:57.154Z,38.10
2018-09-06T07:12:24.880Z,40.70
2018-09-06T07:14:52.569Z,35.00
2018-09-06T07:17:20.247Z,41.27
2018-09-06T07:19:47.775Z,34.13
2018-09-06T07:22:15.363Z,41.20
2018-09-06T07:24:42.971Z,34.37
2018-09-06T07:27:10.870Z,39.60
2018-09-06T07:29:38.529Z,39.83
2018-09-06T07:32:06.450Z,40.23
2018-09-06T07:34:34.147Z,38.23
2018-09-06T07:37:01.824Z,43.28
2018-09-06T07:39:29.470Z,41.07
2018-09-06T07:41:57.080Z,42.13
2018-09-06T07:44:24.746Z,39.08
2018-09-06T07:46:52.447Z,36.60
2018-09-06T07:49:20.088Z,34.40
2018-09-06T07:51:47.968Z,41.73
2018-09-06T07:54:15.579Z,35.47
2018-09-06T07:56:43.224Z,41.83
2018-09-06T07:59:10.852Z,44.25
2018-09-06T08:01:38.633Z,37.38
2018-09-06T08:04:06.411Z,37.90
2018-09-06T08:06:34.224Z,44.05
2018-09-06T08:09:01.923Z,33.60
2018-09-06T08:11:29.644Z,38.17
2018-09-06T08:13:57.279Z,32.90
2018-09-06T08:16:25.120Z,40.23
2018-09-06T08:18:52.797Z,38.67
2018-09-06T08:21:20.528Z,38.08
2018-09-06T08:23:48.188Z,37.30
2018-09-06T08:26:15.900Z,38.92
2018-09-06T08:28:43.617Z,36.65
2018-09-06T08:31:11.438Z,36.93
2018-09-06T08:33:39.114Z,42.33
2018-09-06T08:36:06.823Z,39.63
2018-09-06T08:38:34.490Z,36.17
2018-09-06T08:41:02.160Z,38.33
2018-09-06T08:43:29.850Z,40.63
2018-09-06T08:45:57.499Z,37.97
2018-09-06T08:48:25.158Z,39.13
2018-09-06T08:50:52.738Z,36.20
2018-09-06T08:53:20.363Z,39.78
2018-09-06T08:55:48.320Z,40.47
2018-09-06T08:58:16.073Z,41.25
2018-09-06T09:00:48.267Z,42.80
2018-09-06T09:03:16.011Z,44.37
2018-09-06T09:05:43.691Z,46.07
2018-09-06T09:08:11.361Z,44.93
2018-09-06T09:10:39.143Z,40.77
2018-09-06T09:13:06.939Z,39.77
2018-09-06T09:15:34.697Z,35.73
2018-09-06T09:18:02.258Z,37.13
2018-09-06T09:20:29.879Z,41.15
2018-09-06T09:22:57.548Z,38.70
2018-09-06T09:25:25.438Z,37.60
2018-09-06T09:27:53.706Z,31.48
2018-09-06T09:30:21.867Z,45.83
2018-09-06T09:32:49.459Z,45.10
2018-09-06T09:35:17.287Z,42.90
2018-09-06T09:37:45.033Z,43.55
2018-09-06T09:40:12.728Z,30.92
2018-09-06T09:42:40.419Z,40.50
2018-09-06T09:45:08.125Z,42.30
2018-09-06T09:50:03.088Z,36.23
2018-09-06T09:52:30.751Z,37.65
2018-09-06T09:54:58.369Z,34.20
2018-09-06T09:57:26.004Z,38.28
2018-09-06T09:59:53.667Z,38.63
2018-09-06T10:02:27.092Z,42.95
2018-09-06T10:04:55.609Z,38.88
2018-09-06T10:07:28.912Z,41.05
2018-09-06T10:09:56.503Z,38.25
2018-09-06T10:12:24.100Z,37.47
2018-09-06T10:14:52.388Z,42.43
2018-09-06T10:17:19.939Z,38.23
2018-09-06T10:19:47.658Z,38.00
2018-09-06T10:22:15.593Z,35.37
2018-09-06T10:24:43.207Z,34.70
2018-09-06T10:27:10.976Z,35.67
2018-09-06T10:29:38.673Z,38.65
2018-09-06T10:32:06.324Z,37.05
2018-09-06T10:34:33.974Z,34.58
2018-09-06T10:37:01.637Z,36.70
2018-09-06T10:39:29.429Z,39.77
2018-09-06T10:41:57.093Z,39.70
2018-09-06T10:44:24.734Z,37.93
2018-09-06T10:46:52.437Z,39.15
2018-09-06T10:49:20.079Z,45.92
2018-09-06T10:51:47.868Z,46.63
2018-09-06T10:54:16.383Z,51.57
2018-09-06T10:56:44.068Z,45.88
2018-09-06T10:59:11.803Z,52.43
2018-09-06T11:01:39.564Z,57.73
2018-09-06T11:04:07.226Z,67.10
2018-09-06T11:06:35.000Z,60.87
2018-09-06T11:09:03.104Z,61.93
2018-09-06T11:11:30.732Z,61.45
2018-09-06T11:13:58.407Z,61.58
2018-09-06T11:16:26.101Z,64.03
2018-09-06T11:18:53.720Z,59.93
2018-09-06T11:21:21.388Z,58.78
2018-09-06T11:23:49.127Z,66.80
2018-09-06T11:26:16.861Z,62.67
2018-09-06T11:28:44.519Z,61.42
2018-09-06T11:31:12.159Z,47.10
2018-09-06T11:33:40.346Z,51.42
2018-09-06T11:36:08.009Z,51.35
2018-09-06T11:38:35.777Z,53.35
2018-09-06T11:41:03.930Z,60.52
2018-09-06T11:43:31.715Z,60.25
2018-09-06T11:45:59.398Z,55.78
2018-09-06T11:48:27.091Z,50.75
2018-09-06T11:50:55.197Z,45.80
2018-09-06T11:53:22.809Z,49.08
2018-09-06T11:55:50.451Z,56.02
2018-09-06T11:58:18.132Z,50.80
2018-09-06T12:00:45.780Z,53.95
2018-09-06T12:03:13.645Z,46.15
2018-09-06T12:05:41.368Z,49.35
2018-09-06T12:08:09.062Z,48.83
2018-09-06T12:10:36.757Z,50.75
2018-09-06T12:13:04.616Z,53.38
2018-09-06T12:15:32.305Z,48.13
2018-09-06T12:18:00.029Z,45.85
2018-09-06T12:20:27.774Z,49.33
2018-09-06T12:22:55.328Z,47.27
2018-09-06T12:25:23.159Z,45.60
2018-09-06T12:27:51.451Z,51.77
2018-09-06T12:30:20.117Z,48.00
2018-09-06T12:32:48.272Z,48.87
2018-09-06T12:35:15.965Z,45.65
2018-09-06T12:37:43.627Z,46.15
2018-09-06T12:40:11.287Z,47.13
2018-09-06T12:42:38.967Z,43.95
2018-09-06T12:45:06.828Z,41.75
2018-09-06T12:47:34.428Z,47.20
2018-09-06T12:50:02.029Z,35.25
2018-09-06T12:52:29.696Z,43.40
2018-09-06T12:54:57.516Z,42.53
2018-09-06T12:57:25.233Z,39.15
2018-09-06T12:59:52.956Z,45.48
2018-09-06T13:02:20.721Z,43.23
2018-09-06T13:04:48.733Z,38.35
2018-09-06T13:07:16.417Z,40.17
2018-09-06T13:09:44.079Z,45.08
2018-09-06T13:12:11.672Z,45.60
2018-09-06T13:14:39.215Z,41.50
2018-09-06T13:17:07.021Z,43.05
2018-09-06T13:19:34.782Z,43.08
2018-09-06T13:22:03.492Z,41.45
2018-09-06T13:38:23.023Z,32.45
2018-09-06T13:40:51.326Z,35.65
2018-09-06T13:43:19.336Z,33.08
2018-09-06T13:45:46.945Z,31.55
2018-09-06T13:48:14.840Z,28.30
2018-09-06T13:50:42.511Z,32.30
2018-09-06T13:53:10.132Z,30.25
2018-09-06T13:55:37.789Z,31.77
2018-09-06T13:58:05.966Z,29.55
2018-09-06T14:00:33.748Z,31.45
2018-09-06T14:03:01.510Z,33.05
2018-09-06T14:05:29.154Z,31.68
2018-09-06T14:07:56.914Z,34.30
2018-09-06T14:10:24.636Z,34.90
2018-09-06T14:12:54.006Z,33.40
2018-09-06T14:15:21.588Z,30.32
2018-09-06T14:17:49.296Z,30.25
2018-09-06T14:20:17.020Z,31.68
2018-09-06T14:22:44.689Z,36.05
2018-09-06T14:25:12.385Z,32.80
2018-09-06T14:27:40.029Z,33.00
2018-09-06T14:30:07.556Z,36.05
2018-09-06T14:32:35.112Z,35.43
2018-09-06T14:35:02.726Z,38.15
2018-09-06T14:37:30.411Z,42.73
2018-09-06T14:39:58.143Z,40.10
2018-09-06T14:42:25.785Z,41.80
2018-09-06T14:44:53.497Z,46.13
2018-09-06T14:47:21.171Z,48.45
2018-09-06T14:49:48.895Z,46.10
2018-09-06T14:52:16.520Z,49.05
2018-09-06T14:54:44.521Z,52.10
2018-09-06T14:57:12.203Z,53.98
2018-09-06T14:59:40.083Z,54.08
2018-09-06T15:02:07.945Z,52.80
2018-09-06T15:04:35.615Z,52.23
2018-09-06T15:07:03.248Z,52.08
2018-09-06T15:09:30.910Z,58.48
2018-09-06T15:11:58.559Z,53.08
2018-09-06T15:14:26.238Z,52.83
2018-09-06T15:16:53.908Z,53.13
2018-09-06T15:19:21.533Z,52.35
2018-09-06T15:21:49.211Z,54.40
2018-09-06T15:24:16.815Z,48.45
2018-09-06T15:26:44.485Z,54.83
2018-09-06T15:29:12.130Z,54.27
2018-09-06T15:31:39.805Z,54.73
2018-09-06T15:34:07.458Z,57.88
2018-09-06T15:36:35.113Z,57.70
2018-09-06T15:39:04.043Z,57.20
2018-09-06T15:41:31.768Z,58.52
2018-09-06T15:43:59.464Z,61.77
2018-09-06T15:46:26.983Z,58.23
2018-09-06T15:48:54.703Z,65.40
2018-09-06T15:51:22.362Z,59.20
2018-09-06T15:53:50.010Z,66.20
2018-09-06T15:56:17.680Z,62.67
2018-09-06T15:58:45.344Z,70.50
2018-09-06T16:01:15.103Z,63.40
2018-09-06T16:03:42.872Z,68.20
2018-09-06T16:06:10.616Z,68.35
2018-09-06T16:08:38.280Z,66.67
2018-09-06T16:11:05.973Z,65.28
2018-09-06T16:13:33.709Z,63.65
2018-09-06T16:16:01.338Z,68.62
2018-09-06T16:18:29.024Z,58.87
2018-09-06T16:20:56.682Z,54.33
2018-09-06T16:23:24.399Z,50.23
2018-09-06T16:25:51.957Z,46.30
2018-09-06T16:28:19.533Z,43.33
2018-09-06T16:30:47.164Z,41.30
2018-09-06T16:33:14.820Z,36.42
2018-09-06T16:35:42.504Z,37.95
2018-09-06T16:38:10.179Z,31.97
2018-09-06T16:40:37.839Z,39.15
2018-09-06T16:43:05.608Z,37.15
2018-09-06T16:45:33.302Z,39.92
2018-09-06T16:48:00.862Z,38.35
2018-09-06T16:50:28.488Z,39.60
2018-09-06T16:52:56.165Z,39.42
2018-09-06T16:55:23.866Z,35.55
2018-09-06T16:57:51.536Z,39.25
2018-09-06T17:00:19.190Z,40.50
2018-09-06T17:02:46.863Z,40.43
2018-09-06T17:05:14.811Z,40.55
2018-09-06T17:07:42.404Z,41.28
2018-09-06T17:10:10.092Z,42.38
2018-09-06T17:12:37.906Z,41.60
2018-09-06T17:15:05.782Z,38.98
2018-09-06T17:17:33.445Z,38.30
2018-09-06T17:20:01.072Z,37.30
2018-09-06T17:22:28.790Z,35.20
2018-09-06T17:24:56.480Z,37.83
2018-09-06T17:27:25.875Z,36.25
2018-09-06T17:29:53.507Z,36.08
2018-09-06T17:32:21.403Z,31.52
2018-09-06T17:34:48.938Z,31.20
2018-09-06T17:37:16.633Z,30.55
2018-09-06T17:39:44.280Z,30.00
2018-09-06T17:42:11.924Z,31.40
2018-09-06T17:44:39.476Z,28.38
2018-09-06T17:47:07.217Z,27.35
2018-09-06T17:49:34.940Z,24.98
2018-09-06T17:52:02.603Z,24.23
2018-09-06T17:54:30.190Z,19.85
2018-09-06T17:56:57.770Z,16.85
2018-09-06T17:59:25.330Z,15.75
2018-09-06T18:01:53.063Z,15.32
2018-09-06T18:04:20.680Z,15.58
2018-09-06T18:06:48.352Z,15.00
2018-09-06T18:09:19.175Z,13.95
2018-09-06T18:11:46.969Z,13.45
2018-09-06T18:14:14.662Z,12.35
2018-09-06T18:16:42.778Z,13.80
2018-09-06T18:19:10.492Z,13.85
2018-09-06T18:21:38.213Z,13.35
2018-09-06T18:24:05.910Z,14.25
2018-09-06T18:26:33.585Z,13.43
2018-09-06T18:29:01.320Z,13.13
2018-09-06T18:31:29.047Z,15.40
2018-09-06T18:33:56.653Z,13.83
2018-09-06T18:36:24.324Z,14.87
2018-09-06T18:38:52.016Z,13.87
2018-09-06T18:41:19.680Z,14.43
2018-09-06T18:43:47.444Z,12.47
2018-09-06T18:46:15.163Z,11.10
2018-09-06T18:48:42.943Z,10.03
2018-09-06T18:51:10.904Z,11.67
2018-09-06T18:53:38.962Z,10.53
2018-09-06T18:56:06.652Z,10.33
2018-09-06T18:58:34.284Z,10.47
2018-09-06T19:01:01.937Z,10.43
2018-09-06T19:03:29.664Z,10.63
2018-09-06T19:05:57.279Z,11.10
2018-09-06T19:08:24.953Z,10.27
2018-09-06T19:10:52.652Z,10.93
2018-09-06T19:13:20.285Z,9.90
2018-09-06T19:15:47.905Z,11.93
2018-09-06T19:18:15.648Z,10.80
2018-09-06T19:20:43.438Z,11.07
2018-09-06T19:23:11.052Z,11.77
2018-09-06T19:25:38.718Z,11.63
2018-09-06T19:28:06.353Z,11.10
2018-09-06T19:30:34.069Z,11.33
2018-09-06T19:33:01.679Z,9.60
2018-09-06T19:35:29.569Z,9.30
2018-09-06T19:37:57.235Z,8.88
2018-09-06T19:40:25.009Z,9.53
2018-09-06T19:42:52.697Z,9.43
2018-09-06T19:45:20.361Z,8.10
2018-09-06T19:47:48.108Z,8.47
2018-09-06T19:50:15.829Z,8.87
2018-09-06T19:52:43.377Z,8.80
2018-09-06T19:55:11.076Z,8.53
2018-09-06T19:57:38.876Z,8.97
2018-09-06T20:00:07.290Z,10.43
2018-09-06T20:02:35.010Z,9.43
2018-09-06T20:05:02.879Z,9.20
2018-09-06T20:07:30.516Z,10.00
2018-09-06T20:09:58.140Z,10.23
2018-09-06T20:12:25.788Z,10.97
2018-09-06T20:14:53.602Z,10.87
2018-09-06T20:17:21.118Z,9.90
2018-09-06T20:19:48.682Z,11.93
2018-09-06T20:22:16.379Z,11.30
2018-09-06T20:24:43.949Z,11.17
2018-09-06T20:27:11.597Z,10.70
2018-09-06T20:29:39.126Z,13.17
2018-09-06T20:32:06.755Z,13.00
2018-09-06T20:34:34.381Z,13.03
2018-09-06T20:37:02.572Z,14.30
2018-09-06T20:39:31.974Z,14.50
2018-09-06T20:41:59.749Z,15.47
2018-09-06T20:44:27.308Z,15.20
2018-09-06T20:46:54.953Z,13.40
2018-09-06T20:49:22.683Z,14.17
2018-09-06T20:51:50.333Z,15.00
2018-09-06T20:54:18.047Z,14.73
2018-09-06T20:56:45.743Z,15.03
2018-09-06T20:59:13.671Z,14.00
2018-09-06T21:01:41.409Z,15.83
2018-09-06T21:04:09.091Z,17.23
2018-09-06T21:06:36.757Z,15.50
2018-09-06T21:09:05.678Z,14.67
2018-09-06T21:11:33.265Z,17.90
2018-09-06T21:14:00.971Z,21.03
2018-09-06T21:16:28.744Z,16.43
2018-09-06T21:18:56.364Z,15.40
2018-09-06T21:21:23.991Z,17.27
2018-09-06T21:23:51.874Z,16.97
2018-09-06T21:26:19.564Z,17.30
2018-09-06T21:28:47.191Z,17.93
2018-09-06T21:31:14.897Z,18.50
2018-09-06T21:33:42.533Z,18.67
2018-09-06T21:36:10.195Z,16.30
2018-09-06T21:38:37.808Z,18.43
2018-09-06T21:41:05.745Z,20.67
2018-09-06T21:43:34.960Z,19.33
2018-09-06T21:46:02.691Z,21.40
2018-09-06T21:48:30.308Z,19.87
2018-09-06T21:50:57.977Z,21.30
2018-09-06T21:53:25.663Z,23.20
2018-09-06T21:55:53.300Z,21.03
2018-09-06T21:58:21.028Z,18.97
2018-09-06T22:00:48.645Z,21.67
2018-09-06T22:03:21.939Z,21.97
2018-09-06T22:05:50.249Z,20.83
2018-09-06T22:08:17.850Z,22.53
2018-09-06T22:10:45.421Z,22.43
2018-09-06T22:13:12.946Z,19.63
2018-09-06T22:15:40.621Z,20.50
2018-09-06T22:18:08.877Z,20.97
2018-09-06T22:20:36.538Z,21.60
2018-09-06T22:23:04.276Z,24.13
2018-09-06T22:25:31.954Z,21.60
2018-09-06T22:27:59.587Z,21.20
2018-09-06T22:30:28.029Z,23.23
2018-09-06T22:32:55.669Z,21.87
2018-09-06T22:35:23.337Z,21.57
2018-09-06T22:37:50.928Z,23.27
2018-09-06T22:40:18.609Z,23.77
2018-09-06T22:42:46.284Z,22.93
2018-09-06T22:45:14.179Z,21.83
2018-09-06T22:47:41.978Z,23.07
2018-09-06T22:50:09.640Z,27.17
2018-09-06T22:52:37.295Z,26.37
2018-09-06T22:55:05.051Z,24.20
2018-09-06T22:57:33.153Z,27.40
2018-09-06T23:00:00.848Z,28.10
2018-09-06T23:02:34.084Z,23.87
2018-09-06T23:05:01.773Z,25.10
2018-09-06T23:07:29.497Z,27.93
2018-09-06T23:10:05.186Z,24.63
2018-09-06T23:12:32.826Z,22.27
2018-09-06T23:15:00.465Z,25.17
2018-09-06T23:17:28.141Z,26.40
2018-09-06T23:19:55.797Z,25.97
2018-09-06T23:22:24.209Z,23.23
2018-09-06T23:24:51.908Z,25.67
2018-09-06T23:27:19.525Z,27.70
2018-09-06T23:29:47.230Z,23.30
2018-09-06T23:32:14.871Z,23.33
2018-09-06T23:34:42.541Z,24.67
2018-09-06T23:37:10.181Z,24.80
2018-09-06T23:39:37.797Z,26.23
2018-09-06T23:42:05.850Z,24.00
2018-09-06T23:44:33.556Z,27.80
2018-09-06T23:47:01.317Z,25.17
2018-09-06T23:49:29.021Z,26.67
2018-09-06T23:51:56.648Z,27.87
2018-09-06T23:54:24.374Z,25.57
2018-09-06T23:56:52.100Z,23.33
2018-09-06T23:59:19.867Z,25.77
